createdAt,value
2018-12-25T00:01:59.117Z,35.68
2018-12-25T00:04:06.391Z,35.42
2018-12-25T00:06:13.869Z,35.35
2018-12-25T00:08:26.975Z,35.07
2018-12-25T00:10:44.547Z,35.46
2018-12-25T00:15:38.344Z,34.81
2018-12-25T00:17:47.136Z,34.24
2018-12-25T00:19:54.094Z,34.43
2018-12-25T00:22:01.525Z,34.10
2018-12-25T00:24:08.878Z,34.07
2018-12-25T00:26:16.175Z,34.36
2018-12-25T00:28:23.301Z,34.30
2018-12-25T00:30:30.868Z,33.85
2018-12-25T00:32:38.165Z,34.21
2018-12-25T00:34:45.406Z,34.49
2018-12-25T00:37:01.786Z,34.26
2018-12-25T00:39:13.603Z,34.62
2018-12-25T00:41:20.916Z,34.44
2018-12-25T00:43:28.061Z,34.63
2018-12-25T00:45:35.428Z,35.05
2018-12-25T00:47:42.546Z,33.88
2018-12-25T00:49:50.561Z,34.73
2018-12-25T00:51:57.686Z,34.22
2018-12-25T00:54:04.907Z,33.99
2018-12-25T00:56:13.005Z,33.59
2018-12-25T00:58:20.262Z,33.18
2018-12-25T01:00:27.577Z,33.40
2018-12-25T01:02:35.362Z,33.40
2018-12-25T01:04:43.493Z,32.70
2018-12-25T01:06:51.624Z,32.79
2018-12-25T01:08:58.828Z,32.78
2018-12-25T01:11:06.785Z,32.75
2018-12-25T01:13:15.434Z,32.67
2018-12-25T01:15:23.777Z,32.26
2018-12-25T01:17:31.152Z,32.59
2018-12-25T01:19:38.632Z,33.17
2018-12-25T01:21:46.647Z,33.92
2018-12-25T01:23:54.567Z,33.64
2018-12-25T01:26:03.389Z,33.69
2018-12-25T01:28:10.804Z,33.69
2018-12-25T01:30:19.256Z,33.75
2018-12-25T01:32:27.055Z,33.59
2018-12-25T01:34:35.325Z,33.96
2018-12-25T01:36:42.410Z,33.45
2018-12-25T01:38:49.584Z,32.81
2018-12-25T01:40:57.351Z,32.57
2018-12-25T01:43:05.161Z,32.53
2018-12-25T01:45:12.809Z,32.47
2018-12-25T01:47:20.473Z,32.75
2018-12-25T01:49:31.768Z,33.41
2018-12-25T01:51:37.336Z,33.94
2018-12-25T01:53:45.007Z,34.07
2018-12-25T01:55:52.017Z,34.03
2018-12-25T01:58:00.074Z,34.37
2018-12-25T02:00:08.127Z,32.97
2018-12-25T02:02:19.943Z,32.39
2018-12-25T02:04:27.738Z,33.91
2018-12-25T02:06:35.707Z,33.44
2018-12-25T02:08:43.957Z,33.61
2018-12-25T02:10:51.544Z,33.41
2018-12-25T02:13:00.778Z,34.16
2018-12-25T02:15:08.620Z,30.59
2018-12-25T02:17:16.779Z,22.99
2018-12-25T02:19:24.678Z,21.08
2018-12-25T02:21:32.260Z,21.75
2018-12-25T02:23:41.332Z,24.20
2018-12-25T02:25:48.463Z,26.71
2018-12-25T02:27:55.608Z,26.70
2018-12-25T02:30:02.554Z,28.24
2018-12-25T02:32:11.776Z,29.42
2018-12-25T02:34:19.014Z,28.97
2018-12-25T02:36:27.155Z,28.89
2018-12-25T02:38:34.384Z,29.52
2018-12-25T02:40:41.768Z,29.12
2018-12-25T02:42:49.508Z,29.35
2018-12-25T02:44:56.526Z,29.42
2018-12-25T02:47:03.835Z,29.44
2018-12-25T02:49:11.801Z,29.80
2018-12-25T02:51:20.007Z,29.64
2018-12-25T02:53:27.109Z,29.69
2018-12-25T02:55:34.381Z,29.99
2018-12-25T02:57:41.597Z,30.98
2018-12-25T02:59:48.582Z,30.89
2018-12-25T03:01:56.598Z,30.96
2018-12-25T03:04:03.700Z,31.23
2018-12-25T03:06:10.938Z,31.42
2018-12-25T03:08:19.310Z,31.55
2018-12-25T03:10:26.653Z,31.34
2018-12-25T03:12:33.979Z,30.93
2018-12-25T03:14:41.192Z,30.73
2018-12-25T03:16:48.815Z,30.33
2018-12-25T03:18:56.741Z,31.11
2018-12-25T03:21:04.134Z,31.03
2018-12-25T03:23:12.217Z,30.40
2018-12-25T03:25:19.805Z,31.62
2018-12-25T03:27:27.271Z,30.30
2018-12-25T03:29:35.736Z,29.95
2018-12-25T03:31:42.960Z,29.90
2018-12-25T03:33:50.783Z,29.87
2018-12-25T03:35:58.299Z,29.59
2018-12-25T03:38:05.623Z,29.72
2018-12-25T03:40:12.733Z,30.48
2018-12-25T03:42:20.113Z,30.34
2018-12-25T03:44:27.319Z,30.65
2018-12-25T03:46:34.447Z,30.81
2018-12-25T03:48:41.576Z,31.14
2018-12-25T03:50:48.896Z,30.97
2018-12-25T03:52:56.032Z,31.08
2018-12-25T03:55:03.091Z,31.70
2018-12-25T03:57:10.301Z,31.02
2018-12-25T03:59:18.384Z,30.98
2018-12-25T04:01:25.551Z,31.47
2018-12-25T04:03:33.435Z,30.81
2018-12-25T04:05:40.811Z,30.57
2018-12-25T04:07:48.759Z,30.55
2018-12-25T04:09:56.272Z,31.14
2018-12-25T04:12:03.613Z,31.91
2018-12-25T04:14:10.709Z,32.06
2018-12-25T04:16:18.505Z,31.57
2018-12-25T04:18:25.890Z,31.07
2018-12-25T04:20:32.953Z,32.01
2018-12-25T04:22:40.060Z,31.39
2018-12-25T04:24:47.289Z,31.20
2018-12-25T04:26:54.635Z,30.58
2018-12-25T04:29:01.687Z,30.35
2018-12-25T04:31:08.797Z,30.40
2018-12-25T04:33:16.141Z,30.25
2018-12-25T04:35:23.916Z,30.38
2018-12-25T04:37:31.832Z,30.35
2018-12-25T04:39:38.983Z,30.56
2018-12-25T04:41:46.291Z,30.66
2018-12-25T04:43:53.296Z,30.85
2018-12-25T04:46:00.941Z,30.56
2018-12-25T04:48:08.176Z,31.30
2018-12-25T04:50:15.918Z,31.05
2018-12-25T04:52:23.815Z,31.09
2018-12-25T04:54:31.043Z,30.84
2018-12-25T04:56:39.251Z,31.50
2018-12-25T04:58:46.433Z,30.60
2018-12-25T05:00:57.783Z,30.09
2018-12-25T05:03:35.877Z,30.09
2018-12-25T05:05:46.142Z,30.13
2018-12-25T05:08:24.100Z,29.88
2018-12-25T05:13:33.276Z,30.06
2018-12-25T05:15:38.921Z,29.91
2018-12-25T05:17:46.385Z,29.85
2018-12-25T05:19:53.811Z,30.06
2018-12-25T05:22:01.031Z,29.79
2018-12-25T05:24:08.201Z,30.23
2018-12-25T05:26:15.416Z,30.42
2018-12-25T05:28:22.362Z,30.76
2018-12-25T05:30:30.799Z,31.18
2018-12-25T05:32:38.404Z,30.66
2018-12-25T05:34:45.549Z,30.13
2018-12-25T05:36:53.434Z,30.46
2018-12-25T05:39:01.233Z,30.55
2018-12-25T05:41:09.624Z,30.44
2018-12-25T05:43:17.027Z,29.65
2018-12-25T05:45:24.902Z,31.29
2018-12-25T05:47:32.155Z,29.71
2018-12-25T05:49:40.618Z,29.77
2018-12-25T05:51:47.700Z,30.12
2018-12-25T05:53:54.972Z,29.88
2018-12-25T05:56:02.345Z,30.58
2018-12-25T05:58:09.485Z,31.11
2018-12-25T06:00:16.573Z,31.11
2018-12-25T06:02:24.293Z,31.28
2018-12-25T06:04:31.616Z,31.74
2018-12-25T06:06:39.106Z,31.75
2018-12-25T06:08:47.012Z,31.99
2018-12-25T06:10:54.919Z,32.17
2018-12-25T06:13:02.392Z,32.25
2018-12-25T06:15:09.745Z,32.47
2018-12-25T06:17:17.115Z,32.28
2018-12-25T06:19:24.356Z,32.75
2018-12-25T06:21:31.393Z,32.11
2018-12-25T06:23:38.688Z,32.07
2018-12-25T06:25:45.932Z,31.40
2018-12-25T06:27:53.052Z,31.03
2018-12-25T06:30:00.786Z,30.34
2018-12-25T06:32:07.389Z,30.14
2018-12-25T06:34:14.588Z,30.01
2018-12-25T06:36:21.717Z,31.11
2018-12-25T06:38:29.065Z,30.35
2018-12-25T06:40:36.444Z,31.11
2018-12-25T06:42:43.791Z,30.94
2018-12-25T06:44:51.612Z,30.76
2018-12-25T06:47:00.134Z,32.00
2018-12-25T06:49:07.188Z,31.48
2018-12-25T06:51:15.136Z,31.88
2018-12-25T06:53:23.082Z,31.89
2018-12-25T06:55:30.156Z,31.77
2018-12-25T06:57:38.153Z,32.26
2018-12-25T06:59:47.181Z,32.17
2018-12-25T07:01:54.599Z,31.94
2018-12-25T07:04:02.130Z,32.19
2018-12-25T07:06:10.001Z,32.25
2018-12-25T07:08:17.863Z,32.22
2018-12-25T07:10:25.155Z,32.12
2018-12-25T07:12:32.586Z,32.48
2018-12-25T07:14:40.125Z,32.54
2018-12-25T07:16:47.713Z,32.35
2018-12-25T07:18:54.807Z,32.31
2018-12-25T07:21:02.034Z,32.45
2018-12-25T07:23:10.053Z,32.20
2018-12-25T07:25:17.195Z,32.28
2018-12-25T07:27:24.476Z,32.11
2018-12-25T07:29:32.304Z,31.26
2018-12-25T07:31:40.133Z,30.93
2018-12-25T07:33:48.366Z,31.04
2018-12-25T07:35:56.292Z,30.71
2018-12-25T07:38:03.540Z,30.55
2018-12-25T07:40:11.834Z,31.87
2018-12-25T07:42:19.287Z,32.32
2018-12-25T07:44:26.749Z,31.93
2018-12-25T07:46:34.157Z,32.05
2018-12-25T07:48:41.562Z,31.79
2018-12-25T07:50:49.915Z,31.70
2018-12-25T07:52:57.183Z,32.28
2018-12-25T07:55:04.458Z,32.11
2018-12-25T07:57:11.812Z,32.66
2018-12-25T07:59:19.893Z,32.30
2018-12-25T08:01:27.265Z,32.89
2018-12-25T08:03:34.587Z,32.52
2018-12-25T08:05:41.823Z,32.37
2018-12-25T08:07:49.373Z,32.38
2018-12-25T08:09:56.559Z,32.24
2018-12-25T08:12:03.699Z,32.63
2018-12-25T08:14:10.844Z,32.56
2018-12-25T08:16:18.051Z,32.39
2018-12-25T08:18:25.031Z,32.40
2018-12-25T08:20:32.355Z,32.06
2018-12-25T08:22:39.723Z,31.69
2018-12-25T08:24:47.152Z,31.35
2018-12-25T08:26:54.558Z,31.06
2018-12-25T08:29:01.685Z,31.54
2018-12-25T08:31:09.626Z,30.79
2018-12-25T08:33:16.719Z,30.72
2018-12-25T08:35:23.886Z,30.61
2018-12-25T08:37:31.089Z,31.69
2018-12-25T08:39:38.508Z,31.52
2018-12-25T08:41:45.514Z,31.32
2018-12-25T08:43:53.582Z,31.98
2018-12-25T08:46:00.647Z,31.91
2018-12-25T08:48:07.895Z,31.89
2018-12-25T08:50:15.917Z,31.86
2018-12-25T08:52:23.582Z,31.97
2018-12-25T08:54:30.771Z,31.96
2018-12-25T08:56:38.099Z,32.43
2018-12-25T08:58:45.333Z,33.13
2018-12-25T09:00:52.697Z,33.03
2018-12-25T09:03:00.212Z,32.54
2018-12-25T09:05:07.367Z,32.40
2018-12-25T09:07:14.587Z,32.35
2018-12-25T09:09:21.986Z,32.44
2018-12-25T09:11:29.999Z,32.59
2018-12-25T09:13:37.005Z,32.61
2018-12-25T09:15:44.233Z,32.63
2018-12-25T09:17:51.379Z,33.29
2018-12-25T09:19:58.856Z,32.68
2018-12-25T09:22:05.952Z,33.32
2018-12-25T09:24:13.108Z,33.31
2018-12-25T09:26:20.852Z,33.46
2018-12-25T09:28:27.932Z,33.86
2018-12-25T09:30:36.052Z,33.05
2018-12-25T09:32:43.391Z,32.92
2018-12-25T09:34:50.665Z,32.74
2018-12-25T09:36:57.918Z,32.15
2018-12-25T09:39:06.041Z,32.03
2018-12-25T09:41:13.672Z,31.90
2018-12-25T09:43:21.139Z,31.46
2018-12-25T09:45:28.482Z,31.29
2018-12-25T09:47:35.646Z,31.28
2018-12-25T09:49:43.233Z,30.88
2018-12-25T09:51:54.659Z,31.62
2018-12-25T09:54:01.178Z,31.83
2018-12-25T09:56:08.489Z,32.01
2018-12-25T09:58:15.711Z,32.16
2018-12-25T10:00:22.735Z,32.38
2018-12-25T10:02:30.946Z,32.28
2018-12-25T10:04:39.050Z,32.03
2018-12-25T10:06:46.830Z,32.53
2018-12-25T10:08:53.953Z,32.43
2018-12-25T10:11:01.295Z,32.95
2018-12-25T10:13:08.703Z,32.61
2018-12-25T10:15:15.724Z,33.10
2018-12-25T10:17:23.640Z,32.75
2018-12-25T10:19:31.266Z,33.16
2018-12-25T10:21:38.681Z,32.86
2018-12-25T10:23:45.538Z,33.06
2018-12-25T10:25:52.849Z,33.10
2018-12-25T10:28:00.228Z,33.13
2018-12-25T10:30:07.376Z,32.99
2018-12-25T10:32:14.471Z,33.18
2018-12-25T10:34:21.698Z,33.06
2018-12-25T10:36:29.857Z,32.65
2018-12-25T10:38:36.771Z,32.26
2018-12-25T10:40:44.046Z,32.22
2018-12-25T10:42:51.150Z,31.54
2018-12-25T10:44:58.292Z,31.51
2018-12-25T10:47:05.531Z,31.25
2018-12-25T10:49:12.787Z,31.15
2018-12-25T10:51:20.129Z,30.97
2018-12-25T10:53:27.202Z,30.98
2018-12-25T10:55:34.580Z,30.79
2018-12-25T10:57:41.878Z,30.74
2018-12-25T10:59:49.019Z,31.24
2018-12-25T11:01:56.328Z,31.82
2018-12-25T11:04:03.920Z,32.14
2018-12-25T11:06:11.247Z,32.13
2018-12-25T11:08:18.537Z,31.96
2018-12-25T11:10:25.622Z,32.34
2018-12-25T11:12:32.757Z,32.37
2018-12-25T11:14:40.768Z,32.68
2018-12-25T11:16:48.020Z,32.51
2018-12-25T11:18:55.609Z,32.55
2018-12-25T11:21:03.322Z,32.56
2018-12-25T11:23:10.683Z,32.98
2018-12-25T11:25:18.109Z,33.04
2018-12-25T11:27:25.274Z,33.08
2018-12-25T11:29:33.600Z,33.08
2018-12-25T11:31:40.806Z,32.86
2018-12-25T11:33:48.213Z,33.58
2018-12-25T11:35:55.814Z,33.39
2018-12-25T11:38:02.863Z,33.13
2018-12-25T11:40:10.672Z,33.26
2018-12-25T11:42:17.690Z,33.29
2018-12-25T11:44:25.033Z,33.18
2018-12-25T11:46:32.751Z,33.70
2018-12-25T11:48:40.062Z,33.94
2018-12-25T11:50:47.318Z,34.08
2018-12-25T11:52:54.490Z,33.66
2018-12-25T11:55:01.577Z,34.10
2018-12-25T11:57:08.807Z,33.95
2018-12-25T11:59:16.156Z,33.97
2018-12-25T12:01:23.334Z,33.89
2018-12-25T12:03:30.605Z,33.31
2018-12-25T12:05:37.725Z,33.72
2018-12-25T12:07:44.877Z,32.79
2018-12-25T12:09:52.661Z,32.63
2018-12-25T12:11:59.878Z,32.15
2018-12-25T12:14:07.085Z,31.85
2018-12-25T12:16:14.319Z,31.66
2018-12-25T12:18:21.826Z,31.77
2018-12-25T12:20:28.872Z,31.41
2018-12-25T12:22:37.366Z,32.46
2018-12-25T12:24:44.736Z,32.25
2018-12-25T12:26:52.202Z,32.31
2018-12-25T12:28:59.228Z,32.40
2018-12-25T12:31:06.418Z,33.07
2018-12-25T12:33:15.554Z,32.61
2018-12-25T12:35:22.758Z,33.05
2018-12-25T12:37:30.119Z,33.54
2018-12-25T12:39:37.296Z,32.53
2018-12-25T12:41:44.904Z,32.13
2018-12-25T12:43:51.928Z,32.03
2018-12-25T12:45:59.239Z,31.83
2018-12-25T12:48:06.447Z,31.52
2018-12-25T12:50:13.869Z,31.60
2018-12-25T12:52:21.202Z,31.54
2018-12-25T12:54:29.002Z,31.09
2018-12-25T12:56:36.475Z,30.87
2018-12-25T12:58:43.874Z,31.37
2018-12-25T13:00:51.256Z,30.82
2018-12-25T13:02:58.292Z,30.85
2018-12-25T13:05:05.330Z,30.90
2018-12-25T13:07:12.699Z,30.60
2018-12-25T13:09:20.092Z,30.48
2018-12-25T13:11:27.428Z,30.70
2018-12-25T13:13:34.467Z,30.45
2018-12-25T13:15:41.538Z,30.71
2018-12-25T13:17:48.772Z,30.53
2018-12-25T13:19:55.936Z,31.08
2018-12-25T13:22:03.013Z,30.70
2018-12-25T13:24:10.294Z,30.65
2018-12-25T13:26:17.898Z,30.87
2018-12-25T13:28:25.630Z,31.71
2018-12-25T13:30:32.708Z,30.54
2018-12-25T13:32:39.723Z,32.72
2018-12-25T13:34:47.015Z,32.37
2018-12-25T13:36:54.398Z,32.04
2018-12-25T13:39:01.464Z,32.20
2018-12-25T13:41:09.621Z,32.80
2018-12-25T13:43:17.490Z,33.08
2018-12-25T13:45:24.794Z,32.99
2018-12-25T13:47:32.089Z,32.58
2018-12-25T13:49:40.399Z,32.13
2018-12-25T13:51:47.540Z,32.02
2018-12-25T13:53:54.888Z,31.41
2018-12-25T13:56:02.948Z,31.34
2018-12-25T13:58:11.166Z,31.39
2018-12-25T14:00:18.244Z,31.08
2018-12-25T14:02:25.221Z,30.84
2018-12-25T14:04:32.487Z,31.60
2018-12-25T14:06:40.265Z,31.50
2018-12-25T14:08:48.357Z,32.71
2018-12-25T14:10:55.898Z,31.48
2018-12-25T14:13:03.066Z,31.61
2018-12-25T14:15:10.933Z,31.67
2018-12-25T14:17:18.046Z,31.68
2018-12-25T14:19:25.722Z,31.77
2018-12-25T14:21:33.011Z,31.71
2018-12-25T14:23:40.295Z,31.59
2018-12-25T14:25:48.428Z,31.62
2018-12-25T14:27:55.544Z,31.61
2018-12-25T14:30:03.513Z,31.62
2018-12-25T14:32:10.852Z,31.77
2018-12-25T14:34:18.166Z,31.73
2018-12-25T14:36:25.816Z,31.65
2018-12-25T14:38:33.138Z,31.90
2018-12-25T14:40:40.203Z,31.59
2018-12-25T14:42:48.572Z,31.66
2018-12-25T14:44:55.959Z,31.43
2018-12-25T14:47:03.244Z,30.94
2018-12-25T14:49:11.611Z,30.82
2018-12-25T14:51:19.622Z,30.69
2018-12-25T14:53:27.382Z,30.48
2018-12-25T14:55:35.392Z,30.47
2018-12-25T14:57:43.194Z,30.70
2018-12-25T14:59:50.779Z,30.83
2018-12-25T15:02:00.010Z,30.90
2018-12-25T15:04:07.825Z,30.97
2018-12-25T15:06:16.049Z,31.13
2018-12-25T15:08:23.304Z,31.13
2018-12-25T15:10:31.506Z,31.24
2018-12-25T15:12:38.750Z,31.25
2018-12-25T15:14:46.738Z,31.18
2018-12-25T15:16:54.052Z,31.19
2018-12-25T15:19:01.449Z,31.25
2018-12-25T15:21:08.750Z,31.19
2018-12-25T15:23:16.233Z,31.25
2018-12-25T15:25:24.173Z,31.22
2018-12-25T15:27:31.577Z,31.23
2018-12-25T15:29:38.812Z,31.25
2018-12-25T15:31:46.738Z,31.31
2018-12-25T15:33:54.019Z,31.38
2018-12-25T15:36:02.983Z,31.18
2018-12-25T15:38:10.342Z,31.25
2018-12-25T15:40:17.379Z,31.39
2018-12-25T15:42:24.697Z,31.27
2018-12-25T15:44:31.943Z,31.44
2018-12-25T15:46:39.186Z,31.23
2018-12-25T15:48:46.343Z,31.20
2018-12-25T15:50:53.642Z,31.59
2018-12-25T15:53:00.798Z,31.16
2018-12-25T15:55:09.396Z,31.23
2018-12-25T15:57:16.884Z,31.33
2018-12-25T15:59:24.333Z,31.60
2018-12-25T16:01:32.474Z,31.99
2018-12-25T16:03:40.386Z,31.83
2018-12-25T16:05:47.523Z,31.86
2018-12-25T16:07:54.719Z,31.81
2018-12-25T16:10:02.052Z,31.99
2018-12-25T16:12:09.703Z,32.06
2018-12-25T16:14:20.062Z,32.19
2018-12-25T16:16:45.979Z,32.25
2018-12-25T16:18:53.400Z,32.49
2018-12-25T16:21:00.733Z,32.29
2018-12-25T16:23:10.760Z,32.37
2018-12-25T16:25:17.967Z,32.25
2018-12-25T16:27:25.077Z,32.36
2018-12-25T16:29:33.069Z,32.34
2018-12-25T16:31:40.468Z,32.28
2018-12-25T16:33:48.491Z,32.47
2018-12-25T16:35:55.657Z,32.39
2018-12-25T16:38:02.943Z,32.68
2018-12-25T16:40:11.499Z,32.68
2018-12-25T16:42:19.364Z,33.49
2018-12-25T16:44:38.032Z,33.79
2018-12-25T16:46:45.618Z,34.19
2018-12-25T16:48:52.984Z,34.68
2018-12-25T16:51:00.203Z,35.18
2018-12-25T16:53:07.533Z,35.03
2018-12-25T16:55:15.852Z,34.38
2018-12-25T16:57:23.013Z,33.86
2018-12-25T16:59:30.279Z,33.09
2018-12-25T17:01:37.570Z,32.73
2018-12-25T17:03:49.511Z,32.70
2018-12-25T17:05:57.545Z,32.78
2018-12-25T17:08:05.631Z,33.06
2018-12-25T17:10:13.501Z,33.13
2018-12-25T17:12:21.019Z,33.77
2018-12-25T17:14:39.402Z,33.85
2018-12-25T17:16:50.512Z,34.33
2018-12-25T17:18:57.727Z,34.28
2018-12-25T17:21:05.002Z,34.38
2018-12-25T17:23:12.386Z,34.99
2018-12-25T17:25:19.679Z,34.71
2018-12-25T17:27:27.599Z,35.77
2018-12-25T17:29:34.841Z,35.09
2018-12-25T17:31:42.505Z,35.20
2018-12-25T17:33:50.761Z,34.79
2018-12-25T17:35:59.615Z,34.60
2018-12-25T17:38:07.981Z,34.82
2018-12-25T17:40:26.958Z,34.95
2018-12-25T17:43:06.447Z,34.89
2018-12-25T17:45:32.411Z,34.94
2018-12-25T17:47:39.901Z,33.89
2018-12-25T17:49:46.990Z,35.16
2018-12-25T17:51:55.174Z,35.44
2018-12-25T17:54:10.692Z,35.10
2018-12-25T17:56:12.027Z,35.18
2018-12-25T17:58:19.376Z,35.34
2018-12-25T18:00:26.690Z,35.12
2018-12-25T18:02:34.535Z,34.89
2018-12-25T18:04:41.795Z,35.55
2018-12-25T18:06:49.592Z,35.83
2018-12-25T18:08:56.739Z,35.33
2018-12-25T18:11:04.463Z,35.05
2018-12-25T18:13:12.455Z,35.32
2018-12-25T18:15:19.503Z,35.35
2018-12-25T18:17:26.776Z,34.95
2018-12-25T18:19:35.903Z,35.09
2018-12-25T18:21:43.204Z,35.21
2018-12-25T18:23:51.061Z,35.14
2018-12-25T18:25:58.397Z,34.86
2018-12-25T18:28:05.920Z,34.88
2018-12-25T18:30:13.694Z,35.19
2018-12-25T18:32:21.745Z,34.61
2018-12-25T18:34:29.012Z,35.04
2018-12-25T18:36:36.330Z,35.52
2018-12-25T18:38:43.332Z,34.74
2018-12-25T18:40:50.798Z,34.83
2018-12-25T18:42:58.683Z,34.58
2018-12-25T18:45:07.061Z,34.50
2018-12-25T18:47:14.195Z,34.71
2018-12-25T18:49:22.715Z,35.01
2018-12-25T18:51:30.527Z,35.31
2018-12-25T18:53:37.913Z,35.22
2018-12-25T18:56:09.395Z,35.14
2018-12-25T18:58:17.022Z,35.20
2018-12-25T19:00:25.146Z,35.16
2018-12-25T19:02:37.086Z,35.48
2018-12-25T19:04:55.610Z,35.45
2018-12-25T19:07:03.994Z,35.41
2018-12-25T19:09:11.537Z,35.34
2018-12-25T19:11:19.239Z,35.78
2018-12-25T19:13:27.764Z,35.55
2018-12-25T19:15:36.431Z,35.40
2018-12-25T19:17:43.607Z,35.41
2018-12-25T19:19:51.620Z,35.60
2018-12-25T19:21:58.682Z,34.78
2018-12-25T19:24:05.827Z,34.96
2018-12-25T19:26:14.542Z,34.32
2018-12-25T19:28:21.573Z,33.95
2018-12-25T19:30:30.560Z,33.70
2018-12-25T19:32:43.728Z,33.69
2018-12-25T19:34:48.507Z,33.96
2018-12-25T19:36:55.929Z,33.45
2018-12-25T19:39:03.317Z,33.43
2018-12-25T19:41:19.218Z,33.75
2018-12-25T19:43:29.012Z,34.03
2018-12-25T19:45:36.594Z,34.32
2018-12-25T19:47:43.639Z,34.40
2018-12-25T19:49:53.887Z,34.37
2018-12-25T19:52:02.679Z,34.19
2018-12-25T19:54:10.980Z,34.58
2018-12-25T19:56:18.953Z,34.53
2018-12-25T19:58:27.524Z,34.57
2018-12-25T20:00:35.698Z,34.63
2018-12-25T20:02:44.239Z,34.74
2018-12-25T20:05:36.090Z,34.95
2018-12-25T20:08:29.761Z,34.67
2018-12-25T20:11:36.849Z,34.49
2018-12-25T20:14:32.446Z,35.27
2018-12-25T20:17:09.889Z,35.08
2018-12-25T20:19:59.492Z,35.48
2018-12-25T20:22:35.174Z,35.36
2018-12-25T20:25:22.890Z,35.75
2018-12-25T20:28:02.888Z,36.05
2018-12-25T20:30:56.150Z,36.03
2018-12-25T20:33:37.147Z,34.99
2018-12-25T20:36:34.875Z,34.80
2018-12-25T22:17:56.453Z,40.29
2018-12-25T22:20:14.488Z,38.96
2018-12-25T22:22:22.222Z,37.45
2018-12-25T22:24:29.605Z,37.98
2018-12-25T22:26:36.668Z,36.71
2018-12-25T22:29:00.059Z,36.10
2018-12-25T22:31:07.479Z,36.50
2018-12-25T22:33:14.843Z,36.27
2018-12-25T22:35:23.219Z,36.43
2018-12-25T22:37:31.762Z,35.29
2018-12-25T22:39:39.585Z,35.48
2018-12-25T22:41:47.141Z,35.52
2018-12-25T22:43:54.502Z,35.60
2018-12-25T22:46:01.757Z,35.57
2018-12-25T22:48:08.989Z,35.60
2018-12-25T22:50:16.588Z,35.85
2018-12-25T22:53:48.126Z,35.57
2018-12-25T22:55:56.083Z,35.27
2018-12-25T22:58:04.092Z,36.14
2018-12-25T23:00:14.200Z,35.55
2018-12-25T23:02:21.463Z,35.42
2018-12-25T23:04:28.723Z,35.28
2018-12-25T23:06:36.093Z,34.90
2018-12-25T23:08:43.326Z,35.26
2018-12-25T23:10:50.938Z,35.63
2018-12-25T23:12:58.833Z,35.74
2018-12-25T23:15:05.891Z,34.90
2018-12-25T23:17:13.465Z,35.13
2018-12-25T23:19:22.468Z,35.49
2018-12-25T23:21:30.863Z,34.93
2018-12-25T23:23:37.985Z,34.53
2018-12-25T23:25:46.039Z,35.57
2018-12-25T23:27:54.670Z,35.39
2018-12-25T23:30:05.735Z,35.61
2018-12-25T23:32:13.455Z,34.79
2018-12-25T23:34:21.203Z,35.07
2018-12-25T23:36:28.079Z,35.56
2018-12-25T23:38:36.508Z,35.85
2018-12-25T23:40:52.836Z,36.02
2018-12-25T23:43:01.736Z,35.25
2018-12-25T23:45:09.641Z,35.47
2018-12-25T23:47:17.658Z,35.25
2018-12-25T23:49:24.807Z,35.48
2018-12-25T23:51:32.818Z,34.88
2018-12-25T23:53:40.332Z,36.60
2018-12-25T23:55:52.910Z,35.81
2018-12-25T23:57:56.622Z,34.89
